createdAt,value
2023-10-26T00:00:58.745Z,3.1
2023-10-26T00:16:32.893Z,2.1
2023-10-26T00:32:07.331Z,1.9
2023-10-26T00:47:41.422Z,1.6
2023-10-26T01:03:15.911Z,1.7
2023-10-26T01:18:50.684Z,3.2
2023-10-26T01:34:25.408Z,2.4
2023-10-26T01:49:59.492Z,1.8
2023-10-26T02:05:33.752Z,0.6
2023-10-26T02:21:08.242Z,0.9
2023-10-26T02:36:42.624Z,1.1
2023-10-26T02:52:16.689Z,0.7
2023-10-26T03:07:50.871Z,0.6
2023-10-26T03:23:25.150Z,0.4
2023-10-26T03:38:59.270Z,0.6
2023-10-26T03:54:33.605Z,0.4
2023-10-26T04:10:07.933Z,0.4
2023-10-26T04:25:53.661Z,0.4
2023-10-26T04:41:29.204Z,0.7
2023-10-26T04:57:03.296Z,0.4
2023-10-26T05:12:37.493Z,0.7
2023-10-26T05:28:11.537Z,1.1
2023-10-26T05:43:45.558Z,1.1
2023-10-26T05:59:19.617Z,1.4
2023-10-26T06:14:53.672Z,1.1
2023-10-26T06:30:27.934Z,1.4
2023-10-26T06:46:02.344Z,1.1
2023-10-26T07:02:06.371Z,1.3
2023-10-26T07:17:45.769Z,1.2
2023-10-26T07:33:20.118Z,1.6
2023-10-26T07:48:54.652Z,2
2023-10-26T08:04:28.760Z,3.6
2023-10-26T08:20:03.083Z,1
2023-10-26T08:35:37.813Z,1.2
2023-10-26T08:51:12.011Z,0.8
2023-10-26T09:06:46.087Z,1.4
2023-10-26T09:22:20.151Z,0.5
2023-10-26T09:37:54.697Z,1.1
2023-10-26T09:53:29.229Z,1.2
2023-10-26T10:09:03.747Z,1.4
2023-10-26T10:24:38.080Z,0.9
2023-10-26T10:40:12.705Z,1.8
2023-10-26T10:55:47.159Z,1.1
2023-10-26T11:11:21.599Z,0.9
2023-10-26T11:26:56.023Z,1.1
2023-10-26T11:42:30.482Z,1.8
2023-10-26T11:58:05.279Z,1.7
2023-10-26T12:13:40.022Z,1.9
2023-10-26T12:29:14.500Z,1.4
2023-10-26T12:44:49.115Z,1.7
2023-10-26T13:00:23.620Z,1
2023-10-26T13:15:58.218Z,5.3
2023-10-26T13:31:33.206Z,2.3
2023-10-26T13:47:07.903Z,1.8
2023-10-26T14:02:42.530Z,1.7
2023-10-26T14:18:17.462Z,2.2
2023-10-26T14:33:53.204Z,1.3
2023-10-26T14:49:30.116Z,1.6
2023-10-26T15:05:04.901Z,1.4
2023-10-26T15:20:39.611Z,2.6
2023-10-26T15:36:13.954Z,1.8
2023-10-26T15:51:48.699Z,1.4
2023-10-26T16:07:23.403Z,2.6
2023-10-26T16:22:57.922Z,2.1
2023-10-26T16:38:32.431Z,1.8
2023-10-26T16:54:06.936Z,2.1
2023-10-26T17:09:41.540Z,2
2023-10-26T17:25:16.870Z,3.2
2023-10-26T17:40:51.470Z,1.7
2023-10-26T17:56:26.096Z,2.4
2023-10-26T18:12:00.611Z,2.9
2023-10-26T18:27:35.222Z,2.2
2023-10-26T18:43:09.736Z,2.6
2023-10-26T18:58:44.347Z,2.5
2023-10-26T19:14:19.212Z,3.1
2023-10-26T19:29:53.720Z,2.9
2023-10-26T19:45:28.363Z,2.5
2023-10-26T20:01:02.985Z,3.2
2023-10-26T20:16:39.527Z,4.2
2023-10-26T20:32:14.531Z,3.8
2023-10-26T20:47:49.210Z,5.5
2023-10-26T21:03:23.923Z,2.1
2023-10-26T21:18:58.401Z,3
2023-10-26T21:34:33.207Z,3.8
2023-10-26T21:50:07.994Z,3
2023-10-26T22:05:42.554Z,3.2
2023-10-26T22:21:17.051Z,5.1
2023-10-26T22:36:51.660Z,5.1
2023-10-26T22:52:26.400Z,3.6
2023-10-26T23:08:00.886Z,3.8
2023-10-26T23:23:35.505Z,3.8
2023-10-26T23:39:10.086Z,4.5
2023-10-26T23:54:44.578Z,3.5
